Fort Lauderdale Hollywood International Airport


Codes: KFLL/FLL
Name: Fort Lauderdale Hollywood International Airport
City: Fort Lauderdale
Country: United States
Elevation: 9 ft.
Website:
Wikipedia:

Photos at Fort Lauderdale Hollywood International Airport


   Photos courtesy of SpottingLog. You can add your own sightings and photos by signing up for a free trial today.



C6-BFX, 21-Jan-2024
© Tobias Rose

N957JB, 21-Jan-2024
© Tobias Rose

N551NW, 21-Jan-2024
© Tobias Rose

N700SV, 21-Jan-2024
© Tobias Rose

N220NV, 21-Jan-2024
© Tobias Rose

N967WN, 21-Jan-2024
© Tobias Rose

N630JB, 21-Jan-2024
© Tobias Rose

N558JB, 21-Jan-2024
© Tobias Rose

N868RB, 21-Jan-2024
© Tobias Rose

N8863Q, 21-Jan-2024
© Tobias Rose

N590NW, 21-Jan-2024
© Tobias Rose

N630JB, 21-Jan-2024
© Tobias Rose


Weather at Fort Lauderdale Hollywood International Airport


Time (UTC)DescriptionTempratureWindCloud coverageVisibilityPressureHumidity
18-Apr-2024 00:00Few Clouds26°C11 mph, E17%10000m1018hPa60%
18-Apr-2024 03:00Few Clouds25°C11 mph, E24%10000m1019hPa61%
18-Apr-2024 06:00Few Clouds24°C11 mph, E17%10000m1018hPa63%
18-Apr-2024 09:00Few Clouds23°C9 mph, E19%10000m1017hPa65%
18-Apr-2024 12:00Scattered Clouds24°C9 mph, E33%10000m1019hPa64%
18-Apr-2024 15:00Few Clouds26°C11 mph, E16%10000m1020hPa56%
18-Apr-2024 18:00Few Clouds27°C11 mph, E15%10000m1019hPa50%
18-Apr-2024 21:00Broken Clouds26°C11 mph, E57%10000m1017hPa52%
19-Apr-2024 00:00Broken Clouds25°C9 mph, E74%10000m1018hPa61%
19-Apr-2024 03:00Overcast Clouds25°C11 mph, E85%10000m1019hPa67%
19-Apr-2024 06:00Broken Clouds24°C11 mph, SE70%10000m1017hPa70%
19-Apr-2024 09:00Overcast Clouds24°C7 mph, SE97%10000m1017hPa72%
19-Apr-2024 12:00Overcast Clouds24°C7 mph, SE91%10000m1019hPa67%
19-Apr-2024 15:00Broken Clouds26°C9 mph, SE66%10000m1019hPa55%
19-Apr-2024 18:00Scattered Clouds28°C11 mph, SE43%10000m1018hPa48%
19-Apr-2024 21:00Clear Sky27°C11 mph, SE8%10000m1017hPa49%
20-Apr-2024 00:00Clear Sky26°C11 mph, SE6%10000m1018hPa57%
20-Apr-2024 03:00Clear Sky25°C9 mph, SE0%10000m1019hPa58%
20-Apr-2024 06:00Clear Sky25°C4 mph, S1%10000m1018hPa63%
20-Apr-2024 09:00Scattered Clouds24°C4 mph, S42%10000m1017hPa66%
20-Apr-2024 12:00Few Clouds24°C2 mph, S21%10000m1019hPa67%
20-Apr-2024 15:00Clear Sky27°C7 mph, SE0%10000m1019hPa55%
20-Apr-2024 18:00Clear Sky28°C11 mph, SE0%10000m1018hPa50%
20-Apr-2024 21:00Clear Sky28°C13 mph, SE0%10000m1016hPa48%
21-Apr-2024 00:00Clear Sky27°C9 mph, SE1%10000m1017hPa50%
21-Apr-2024 03:00Clear Sky26°C9 mph, S4%10000m1018hPa56%
21-Apr-2024 06:00Few Clouds25°C7 mph, S13%10000m1017hPa63%
21-Apr-2024 09:00Scattered Clouds25°C4 mph, SE47%10000m1016hPa66%
21-Apr-2024 12:00Few Clouds25°C7 mph, SE24%10000m1017hPa67%
21-Apr-2024 15:00Clear Sky27°C9 mph, SE0%10000m1018hPa56%
21-Apr-2024 18:00Clear Sky28°C13 mph, SE0%10000m1016hPa50%
21-Apr-2024 21:00Clear Sky28°C13 mph, SE1%10000m1015hPa50%
22-Apr-2024 00:00Clear Sky26°C13 mph, SE1%10000m1015hPa55%
22-Apr-2024 03:00Clear Sky25°C11 mph, SE0%10000m1016hPa64%
22-Apr-2024 06:00Clear Sky25°C9 mph, S1%10000m1015hPa67%
22-Apr-2024 09:00Clear Sky25°C7 mph, S7%10000m1014hPa69%
22-Apr-2024 12:00Clear Sky25°C9 mph, S8%10000m1015hPa71%
22-Apr-2024 15:00Scattered Clouds27°C11 mph, S47%10000m1015hPa58%
22-Apr-2024 18:00Broken Clouds30°C13 mph, S51%10000m1013hPa48%
22-Apr-2024 21:00Clear Sky30°C20 mph, SE4%10000m1012hPa52%